sensor_id;sensor_type;location;lat;lon;timestamp;pressure;altitude;pressure_sealevel;temperature;humidity
21706;BME280;11014;53.076;18.208;2023-02-01T00:00:14;100013.47;;;6.00;82.09
21706;BME280;11014;53.076;18.208;2023-02-01T00:03:05;100031.47;;;6.05;81.48
21706;BME280;11014;53.076;18.208;2023-02-01T00:05:38;100029.25;;;6.02;81.34
21706;BME280;11014;53.076;18.208;2023-02-01T00:08:10;100063.91;;;6.02;81.26
21706;BME280;11014;53.076;18.208;2023-02-01T00:11:00;100037.84;;;6.04;80.98
21706;BME280;11014;53.076;18.208;2023-02-01T00:13:48;100030.78;;;6.16;80.83
21706;BME280;11014;53.076;18.208;2023-02-01T00:16:19;100040.06;;;6.07;80.80
21706;BME280;11014;53.076;18.208;2023-02-01T00:18:50;100047.56;;;6.23;80.34
21706;BME280;11014;53.076;18.208;2023-02-01T00:21:21;100041.91;;;6.37;80.25
21706;BME280;11014;53.076;18.208;2023-02-01T00:23:53;100050.56;;;6.33;79.86
21706;BME280;11014;53.076;18.208;2023-02-01T00:26:34;100041.09;;;6.37;79.62
21706;BME280;11014;53.076;18.208;2023-02-01T00:29:09;100042.97;;;6.36;79.95
21706;BME280;11014;53.076;18.208;2023-02-01T00:31:43;100047.31;;;6.31;79.70
21706;BME280;11014;53.076;18.208;2023-02-01T00:34:13;100059.16;;;6.35;79.78
21706;BME280;11014;53.076;18.208;2023-02-01T00:36:44;100061.25;;;6.33;80.01
21706;BME280;11014;53.076;18.208;2023-02-01T00:39:13;100061.72;;;6.48;80.04
21706;BME280;11014;53.076;18.208;2023-02-01T00:41:45;100072.19;;;6.49;79.54
21706;BME280;11014;53.076;18.208;2023-02-01T00:44:14;100068.72;;;6.49;79.50
21706;BME280;11014;53.076;18.208;2023-02-01T00:46:50;100072.94;;;6.32;79.93
21706;BME280;11014;53.076;18.208;2023-02-01T00:49:19;100069.13;;;6.46;79.77
21706;BME280;11014;53.076;18.208;2023-02-01T00:52:16;100050.41;;;6.52;79.66
21706;BME280;11014;53.076;18.208;2023-02-01T00:54:44;100076.03;;;6.29;79.66
21706;BME280;11014;53.076;18.208;2023-02-01T00:57:13;100073.63;;;6.52;79.34
21706;BME280;11014;53.076;18.208;2023-02-01T00:59:42;100066.59;;;6.57;79.40
21706;BME280;11014;53.076;18.208;2023-02-01T01:02:11;100057.75;;;6.57;79.16
21706;BME280;11014;53.076;18.208;2023-02-01T01:05:03;100067.94;;;6.67;79.46
21706;BME280;11014;53.076;18.208;2023-02-01T01:07:32;100064.75;;;6.58;79.78
21706;BME280;11014;53.076;18.208;2023-02-01T01:10:01;100064.09;;;6.31;80.43
21706;BME280;11014;53.076;18.208;2023-02-01T01:12:30;100062.44;;;6.37;81.08
21706;BME280;11014;53.076;18.208;2023-02-01T01:14:59;100060.91;;;6.23;81.59
21706;BME280;11014;53.076;18.208;2023-02-01T01:17:31;100066.19;;;6.29;81.98
21706;BME280;11014;53.076;18.208;2023-02-01T01:19:59;100064.94;;;6.32;81.94
21706;BME280;11014;53.076;18.208;2023-02-01T01:22:28;100060.75;;;6.42;81.71
21706;BME280;11014;53.076;18.208;2023-02-01T01:25:22;100072.19;;;6.18;81.97
21706;BME280;11014;53.076;18.208;2023-02-01T01:27:54;100053.06;;;6.28;82.31
21706;BME280;11014;53.076;18.208;2023-02-01T01:30:24;100046.34;;;6.19;82.22
21706;BME280;11014;53.076;18.208;2023-02-01T01:33:06;100058.34;;;6.34;82.37
21706;BME280;11014;53.076;18.208;2023-02-01T01:35:35;100053.75;;;6.17;82.72
21706;BME280;11014;53.076;18.208;2023-02-01T01:38:04;100054.84;;;6.34;82.35
21706;BME280;11014;53.076;18.208;2023-02-01T01:40:32;100066.84;;;6.25;82.79
21706;BME280;11014;53.076;18.208;2023-02-01T01:46:02;100054.03;;;6.09;83.21
21706;BME280;11014;53.076;18.208;2023-02-01T01:48:31;100054.38;;;6.19;83.39
21706;BME280;11014;53.076;18.208;2023-02-01T01:51:07;100057.16;;;6.30;83.19
21706;BME280;11014;53.076;18.208;2023-02-01T01:53:49;100056.16;;;6.25;83.02
21706;BME280;11014;53.076;18.208;2023-02-01T01:56:21;100056.94;;;6.32;83.05
21706;BME280;11014;53.076;18.208;2023-02-01T01:58:52;100055.91;;;6.33;82.78
21706;BME280;11014;53.076;18.208;2023-02-01T02:01:21;100058.66;;;6.20;82.66
21706;BME280;11014;53.076;18.208;2023-02-01T02:03:52;100061.34;;;6.20;82.67
21706;BME280;11014;53.076;18.208;2023-02-01T02:06:42;100072.44;;;6.17;82.48
21706;BME280;11014;53.076;18.208;2023-02-01T02:10:21;100061.75;;;6.17;82.42
21706;BME280;11014;53.076;18.208;2023-02-01T02:13:11;100062.06;;;6.33;82.37
21706;BME280;11014;53.076;18.208;2023-02-01T02:18:57;100057.19;;;6.24;81.58
21706;BME280;11014;53.076;18.208;2023-02-01T02:28:35;100056.66;;;6.40;80.86
21706;BME280;11014;53.076;18.208;2023-02-01T02:31:24;100050.50;;;6.39;80.54
21706;BME280;11014;53.076;18.208;2023-02-01T02:34:52;100047.31;;;6.31;80.31
21706;BME280;11014;53.076;18.208;2023-02-01T02:37:31;100065.03;;;6.19;79.98
21706;BME280;11014;53.076;18.208;2023-02-01T02:40:28;100051.63;;;6.01;79.85
21706;BME280;11014;53.076;18.208;2023-02-01T02:43:22;100058.31;;;6.10;79.88
21706;BME280;11014;53.076;18.208;2023-02-01T02:46:22;100049.97;;;6.00;79.90
21706;BME280;11014;53.076;18.208;2023-02-01T02:49:34;100058.72;;;6.07;79.80
21706;BME280;11014;53.076;18.208;2023-02-01T02:52:16;100056.53;;;6.04;79.73
21706;BME280;11014;53.076;18.208;2023-02-01T02:55:45;100082.31;;;6.10;78.98
21706;BME280;11014;53.076;18.208;2023-02-01T02:58:15;100061.75;;;6.17;78.93
21706;BME280;11014;53.076;18.208;2023-02-01T03:01:04;100070.84;;;6.34;78.38
21706;BME280;11014;53.076;18.208;2023-02-01T03:03:52;100065.41;;;6.22;77.87
21706;BME280;11014;53.076;18.208;2023-02-01T03:06:48;100070.25;;;6.32;77.64
21706;BME280;11014;53.076;18.208;2023-02-01T03:09:31;100063.84;;;6.15;76.64
21706;BME280;11014;53.076;18.208;2023-02-01T03:12:07;100064.31;;;5.98;75.80
21706;BME280;11014;53.076;18.208;2023-02-01T03:15:11;100090.59;;;6.33;75.96
21706;BME280;11014;53.076;18.208;2023-02-01T03:17:45;100084.38;;;6.39;75.82
21706;BME280;11014;53.076;18.208;2023-02-01T03:20:17;100070.44;;;6.37;74.81
21706;BME280;11014;53.076;18.208;2023-02-01T03:22:52;100084.88;;;6.54;74.62
21706;BME280;11014;53.076;18.208;2023-02-01T03:25:27;100088.13;;;6.56;74.45
21706;BME280;11014;53.076;18.208;2023-02-01T03:28:04;100096.25;;;6.68;73.93
21706;BME280;11014;53.076;18.208;2023-02-01T03:30:40;100081.94;;;6.62;73.66
21706;BME280;11014;53.076;18.208;2023-02-01T03:33:20;100085.53;;;6.74;73.70
21706;BME280;11014;53.076;18.208;2023-02-01T03:35:56;100102.03;;;6.65;72.81
21706;BME280;11014;53.076;18.208;2023-02-01T03:38:32;100088.84;;;6.70;72.93
21706;BME280;11014;53.076;18.208;2023-02-01T03:44:01;100081.25;;;6.91;72.85
21706;BME280;11014;53.076;18.208;2023-02-01T03:46:37;100071.63;;;6.90;72.31
21706;BME280;11014;53.076;18.208;2023-02-01T03:49:10;100069.84;;;6.84;72.13
21706;BME280;11014;53.076;18.208;2023-02-01T03:51:41;100078.00;;;6.89;72.46
21706;BME280;11014;53.076;18.208;2023-02-01T03:54:13;100064.81;;;6.94;72.01
21706;BME280;11014;53.076;18.208;2023-02-01T03:56:45;100058.59;;;7.00;71.58
21706;BME280;11014;53.076;18.208;2023-02-01T03:59:15;100063.63;;;6.90;71.29
21706;BME280;11014;53.076;18.208;2023-02-01T04:01:44;100062.50;;;6.80;70.87
21706;BME280;11014;53.076;18.208;2023-02-01T04:04:13;100070.34;;;6.99;70.75
21706;BME280;11014;53.076;18.208;2023-02-01T04:06:53;100064.00;;;6.94;70.68
21706;BME280;11014;53.076;18.208;2023-02-01T04:09:21;100070.16;;;6.94;70.27
21706;BME280;11014;53.076;18.208;2023-02-01T04:11:50;100054.13;;;6.94;70.31
21706;BME280;11014;53.076;18.208;2023-02-01T04:14:21;100053.78;;;6.91;70.42
21706;BME280;11014;53.076;18.208;2023-02-01T04:16:50;100060.97;;;6.90;70.62
21706;BME280;11014;53.076;18.208;2023-02-01T04:19:18;100052.66;;;6.80;70.90
21706;BME280;11014;53.076;18.208;2023-02-01T04:21:47;100046.69;;;6.78;70.80
21706;BME280;11014;53.076;18.208;2023-02-01T04:24:16;100050.56;;;6.82;71.10
21706;BME280;11014;53.076;18.208;2023-02-01T04:26:45;100040.44;;;6.66;71.39
21706;BME280;11014;53.076;18.208;2023-02-01T04:29:13;100049.75;;;6.57;71.48
21706;BME280;11014;53.076;18.208;2023-02-01T04:31:42;100044.16;;;6.65;71.80
21706;BME280;11014;53.076;18.208;2023-02-01T04:34:10;100043.28;;;6.71;71.79
21706;BME280;11014;53.076;18.208;2023-02-01T04:36:39;100062.56;;;6.73;71.78
21706;BME280;11014;53.076;18.208;2023-02-01T04:39:09;100048.09;;;6.81;71.64
21706;BME280;11014;53.076;18.208;2023-02-01T04:41:38;100058.63;;;6.76;71.97
21706;BME280;11014;53.076;18.208;2023-02-01T04:44:13;100056.66;;;6.89;72.23
21706;BME280;11014;53.076;18.208;2023-02-01T04:46:43;100061.69;;;6.79;73.65
21706;BME280;11014;53.076;18.208;2023-02-01T04:49:13;100054.34;;;6.75;74.50
21706;BME280;11014;53.076;18.208;2023-02-01T04:55:31;100054.50;;;6.55;75.45
21706;BME280;11014;53.076;18.208;2023-02-01T04:58:10;100047.09;;;6.57;75.43
21706;BME280;11014;53.076;18.208;2023-02-01T05:00:38;100057.34;;;6.60;75.38
21706;BME280;11014;53.076;18.208;2023-02-01T05:03:09;100048.50;;;6.60;75.36
21706;BME280;11014;53.076;18.208;2023-02-01T05:05:40;100051.22;;;6.53;75.46
21706;BME280;11014;53.076;18.208;2023-02-01T05:08:20;100027.97;;;6.60;74.82
21706;BME280;11014;53.076;18.208;2023-02-01T05:10:57;100051.13;;;6.66;74.91
21706;BME280;11014;53.076;18.208;2023-02-01T05:13:44;100036.41;;;6.57;74.24
21706;BME280;11014;53.076;18.208;2023-02-01T05:16:20;100029.50;;;6.49;74.37
21706;BME280;11014;53.076;18.208;2023-02-01T05:18:55;100026.72;;;6.38;74.27
21706;BME280;11014;53.076;18.208;2023-02-01T05:21:26;100030.34;;;6.50;73.63
21706;BME280;11014;53.076;18.208;2023-02-01T05:23:58;100029.00;;;6.59;73.54
21706;BME280;11014;53.076;18.208;2023-02-01T05:26:42;100011.75;;;6.62;73.02
21706;BME280;11014;53.076;18.208;2023-02-01T05:29:28;100034.19;;;6.54;72.23
21706;BME280;11014;53.076;18.208;2023-02-01T05:31:58;100039.69;;;6.59;72.20
21706;BME280;11014;53.076;18.208;2023-02-01T05:34:48;100024.91;;;6.81;71.91
21706;BME280;11014;53.076;18.208;2023-02-01T05:37:17;100036.00;;;6.78;71.77
21706;BME280;11014;53.076;18.208;2023-02-01T05:39:46;100035.88;;;6.73;71.55
21706;BME280;11014;53.076;18.208;2023-02-01T05:42:14;100043.38;;;6.83;71.33
21706;BME280;11014;53.076;18.208;2023-02-01T05:44:43;100039.88;;;6.82;71.57
21706;BME280;11014;53.076;18.208;2023-02-01T05:47:12;100039.56;;;6.72;71.61
21706;BME280;11014;53.076;18.208;2023-02-01T05:49:40;100021.50;;;6.74;71.87
21706;BME280;11014;53.076;18.208;2023-02-01T05:52:09;100039.88;;;6.82;71.29
21706;BME280;11014;53.076;18.208;2023-02-01T05:54:37;100041.84;;;6.93;71.37
21706;BME280;11014;53.076;18.208;2023-02-01T05:57:06;100044.50;;;6.93;71.46
21706;BME280;11014;53.076;18.208;2023-02-01T05:59:34;100049.03;;;6.93;71.47
21706;BME280;11014;53.076;18.208;2023-02-01T06:02:05;100039.16;;;6.93;71.37
21706;BME280;11014;53.076;18.208;2023-02-01T06:04:34;100082.47;;;6.95;71.13
21706;BME280;11014;53.076;18.208;2023-02-01T06:07:02;100060.03;;;6.78;71.33
21706;BME280;11014;53.076;18.208;2023-02-01T06:09:31;100052.66;;;6.80;71.58
21706;BME280;11014;53.076;18.208;2023-02-01T06:11:59;100062.84;;;6.83;71.54
21706;BME280;11014;53.076;18.208;2023-02-01T06:14:29;100058.31;;;7.08;71.03
21706;BME280;11014;53.076;18.208;2023-02-01T06:16:57;100066.69;;;7.12;71.21
21706;BME280;11014;53.076;18.208;2023-02-01T06:19:26;100062.63;;;7.09;71.02
21706;BME280;11014;53.076;18.208;2023-02-01T06:21:54;100072.91;;;7.06;70.60
21706;BME280;11014;53.076;18.208;2023-02-01T06:24:23;100078.69;;;7.03;70.85
21706;BME280;11014;53.076;18.208;2023-02-01T06:26:51;100072.53;;;7.02;70.92
21706;BME280;11014;53.076;18.208;2023-02-01T06:29:20;100070.63;;;7.09;70.72
21706;BME280;11014;53.076;18.208;2023-02-01T06:31:48;100065.72;;;7.06;70.82
21706;BME280;11014;53.076;18.208;2023-02-01T06:34:17;100066.00;;;6.98;70.82
21706;BME280;11014;53.076;18.208;2023-02-01T06:36:49;100066.88;;;6.92;70.85
21706;BME280;11014;53.076;18.208;2023-02-01T06:39:17;100075.91;;;6.91;70.42
21706;BME280;11014;53.076;18.208;2023-02-01T06:41:47;100074.47;;;7.13;70.54
21706;BME280;11014;53.076;18.208;2023-02-01T06:44:18;100063.31;;;6.80;70.37
21706;BME280;11014;53.076;18.208;2023-02-01T06:46:46;100059.03;;;6.97;70.38
21706;BME280;11014;53.076;18.208;2023-02-01T06:49:15;100069.56;;;7.10;70.21
21706;BME280;11014;53.076;18.208;2023-02-01T06:51:43;100068.69;;;7.16;70.16
21706;BME280;11014;53.076;18.208;2023-02-01T06:54:12;100074.81;;;7.24;69.62
21706;BME280;11014;53.076;18.208;2023-02-01T06:56:40;100064.84;;;7.31;69.38
21706;BME280;11014;53.076;18.208;2023-02-01T06:59:09;100068.41;;;7.25;69.28
21706;BME280;11014;53.076;18.208;2023-02-01T07:01:38;100064.63;;;7.14;68.82
21706;BME280;11014;53.076;18.208;2023-02-01T07:04:10;100067.66;;;7.18;68.59
21706;BME280;11014;53.076;18.208;2023-02-01T07:06:39;100065.28;;;7.28;68.47
21706;BME280;11014;53.076;18.208;2023-02-01T07:09:08;100068.34;;;7.13;68.12
21706;BME280;11014;53.076;18.208;2023-02-01T07:11:37;100063.94;;;7.00;68.08
21706;BME280;11014;53.076;18.208;2023-02-01T07:14:12;100066.06;;;7.35;68.05
21706;BME280;11014;53.076;18.208;2023-02-01T07:16:40;100059.34;;;7.44;67.37
21706;BME280;11014;53.076;18.208;2023-02-01T07:19:09;100055.66;;;7.45;67.20
21706;BME280;11014;53.076;18.208;2023-02-01T07:21:37;100073.16;;;7.41;67.22
21706;BME280;11014;53.076;18.208;2023-02-01T07:24:06;100065.34;;;7.57;66.81
21706;BME280;11014;53.076;18.208;2023-02-01T07:26:34;100065.06;;;7.47;66.43
21706;BME280;11014;53.076;18.208;2023-02-01T07:29:03;100078.19;;;7.49;66.32
21706;BME280;11014;53.076;18.208;2023-02-01T07:31:31;100038.41;;;7.41;66.31
21706;BME280;11014;53.076;18.208;2023-02-01T07:34:00;100062.72;;;7.21;66.26
21706;BME280;11014;53.076;18.208;2023-02-01T07:36:30;100058.00;;;7.16;66.51
21706;BME280;11014;53.076;18.208;2023-02-01T07:39:01;100070.13;;;7.37;66.65
21706;BME280;11014;53.076;18.208;2023-02-01T07:41:29;100058.31;;;7.08;66.77
21706;BME280;11014;53.076;18.208;2023-02-01T07:43:58;100056.84;;;7.12;66.71
21706;BME280;11014;53.076;18.208;2023-02-01T07:46:26;100049.91;;;7.05;67.09
21706;BME280;11014;53.076;18.208;2023-02-01T07:48:55;100042.44;;;7.13;67.01
21706;BME280;11014;53.076;18.208;2023-02-01T07:51:23;100052.66;;;7.16;66.82
21706;BME280;11014;53.076;18.208;2023-02-01T07:53:52;100054.91;;;7.01;66.97
21706;BME280;11014;53.076;18.208;2023-02-01T07:56:23;100047.03;;;7.06;66.86
21706;BME280;11014;53.076;18.208;2023-02-01T07:58:54;100046.59;;;7.09;67.52
21706;BME280;11014;53.076;18.208;2023-02-01T08:01:25;100046.31;;;7.18;66.86
21706;BME280;11014;53.076;18.208;2023-02-01T08:03:57;100034.44;;;7.32;66.94
21706;BME280;11014;53.076;18.208;2023-02-01T08:06:30;100043.09;;;7.09;66.92
21706;BME280;11014;53.076;18.208;2023-02-01T08:08:59;100047.19;;;7.30;66.62
21706;BME280;11014;53.076;18.208;2023-02-01T08:11:28;100053.13;;;7.32;66.52
21706;BME280;11014;53.076;18.208;2023-02-01T08:13:57;100048.50;;;7.57;66.61
21706;BME280;11014;53.076;18.208;2023-02-01T08:16:28;100050.66;;;7.30;66.64
21706;BME280;11014;53.076;18.208;2023-02-01T08:18:57;100061.28;;;7.55;66.47
21706;BME280;11014;53.076;18.208;2023-02-01T08:21:27;100060.69;;;7.53;66.53
21706;BME280;11014;53.076;18.208;2023-02-01T08:24:16;100051.41;;;7.55;66.15
21706;BME280;11014;53.076;18.208;2023-02-01T08:26:45;100045.63;;;7.58;66.85
21706;BME280;11014;53.076;18.208;2023-02-01T08:29:14;100051.47;;;7.49;67.33
21706;BME280;11014;53.076;18.208;2023-02-01T08:31:42;100054.00;;;7.62;67.37
21706;BME280;11014;53.076;18.208;2023-02-01T08:34:11;100060.09;;;7.51;67.92
21706;BME280;11014;53.076;18.208;2023-02-01T08:36:40;100051.06;;;7.15;68.56
21706;BME280;11014;53.076;18.208;2023-02-01T08:39:10;100057.81;;;7.36;68.64
21706;BME280;11014;53.076;18.208;2023-02-01T08:41:39;100064.56;;;7.21;68.78
21706;BME280;11014;53.076;18.208;2023-02-01T08:44:08;100065.13;;;7.41;69.11
21706;BME280;11014;53.076;18.208;2023-02-01T08:46:36;100071.22;;;7.11;68.99
21706;BME280;11014;53.076;18.208;2023-02-01T08:49:05;100055.44;;;7.28;69.32
21706;BME280;11014;53.076;18.208;2023-02-01T08:51:33;100049.34;;;7.39;69.56
21706;BME280;11014;53.076;18.208;2023-02-01T08:54:02;100047.16;;;7.66;69.29
21706;BME280;11014;53.076;18.208;2023-02-01T08:56:30;100057.19;;;7.52;69.13
21706;BME280;11014;53.076;18.208;2023-02-01T08:58:59;100044.50;;;7.48;69.11
21706;BME280;11014;53.076;18.208;2023-02-01T09:01:27;100066.63;;;7.55;69.28
21706;BME280;11014;53.076;18.208;2023-02-01T09:03:56;100053.69;;;7.52;69.26
21706;BME280;11014;53.076;18.208;2023-02-01T09:06:24;100048.34;;;7.52;69.22
21706;BME280;11014;53.076;18.208;2023-02-01T09:08:53;100039.31;;;7.53;69.01
21706;BME280;11014;53.076;18.208;2023-02-01T09:11:21;100057.28;;;7.46;69.44
21706;BME280;11014;53.076;18.208;2023-02-01T09:13:50;100070.03;;;7.44;69.53
21706;BME280;11014;53.076;18.208;2023-02-01T09:16:18;100078.34;;;7.36;69.82
21706;BME280;11014;53.076;18.208;2023-02-01T09:18:54;100088.53;;;7.45;69.95
21706;BME280;11014;53.076;18.208;2023-02-01T09:21:43;100075.88;;;7.70;70.32
21706;BME280;11014;53.076;18.208;2023-02-01T09:24:12;100074.31;;;7.63;70.88
21706;BME280;11014;53.076;18.208;2023-02-01T09:26:40;100091.84;;;7.41;71.52
21706;BME280;11014;53.076;18.208;2023-02-01T09:29:09;100097.06;;;7.54;72.13
21706;BME280;11014;53.076;18.208;2023-02-01T09:31:40;100099.13;;;7.52;73.21
21706;BME280;11014;53.076;18.208;2023-02-01T09:34:20;100084.34;;;7.49;73.20
21706;BME280;11014;53.076;18.208;2023-02-01T09:36:49;100095.59;;;7.40;73.26
21706;BME280;11014;53.076;18.208;2023-02-01T09:39:17;100099.00;;;7.29;73.75
21706;BME280;11014;53.076;18.208;2023-02-01T09:41:57;100095.72;;;7.27;74.07
21706;BME280;11014;53.076;18.208;2023-02-01T09:44:49;100083.63;;;7.60;73.55
21706;BME280;11014;53.076;18.208;2023-02-01T09:47:22;100083.84;;;7.59;73.41
21706;BME280;11014;53.076;18.208;2023-02-01T09:50:02;100087.09;;;7.61;73.45
21706;BME280;11014;53.076;18.208;2023-02-01T09:52:38;100093.66;;;7.65;72.42
21706;BME280;11014;53.076;18.208;2023-02-01T09:55:39;100087.69;;;7.81;71.88
21706;BME280;11014;53.076;18.208;2023-02-01T10:00:58;100090.59;;;8.09;71.23
21706;BME280;11014;53.076;18.208;2023-02-01T10:03:30;100096.44;;;7.88;70.29
21706;BME280;11014;53.076;18.208;2023-02-01T10:06:07;100085.69;;;8.06;70.20
21706;BME280;11014;53.076;18.208;2023-02-01T10:12:02;100089.94;;;8.25;68.47
21706;BME280;11014;53.076;18.208;2023-02-01T10:14:51;100075.41;;;8.21;68.13
21706;BME280;11014;53.076;18.208;2023-02-01T10:17:47;100067.56;;;8.50;68.30
21706;BME280;11014;53.076;18.208;2023-02-01T10:20:29;100074.69;;;8.44;67.46
21706;BME280;11014;53.076;18.208;2023-02-01T10:26:01;100069.47;;;8.72;67.17
21706;BME280;11014;53.076;18.208;2023-02-01T10:28:33;100063.31;;;8.72;66.96
21706;BME280;11014;53.076;18.208;2023-02-01T10:31:05;100057.38;;;8.70;66.52
21706;BME280;11014;53.076;18.208;2023-02-01T10:33:58;100064.44;;;8.53;66.29
21706;BME280;11014;53.076;18.208;2023-02-01T10:36:35;100061.09;;;8.69;66.08
21706;BME280;11014;53.076;18.208;2023-02-01T10:39:11;100052.06;;;8.28;67.19
21706;BME280;11014;53.076;18.208;2023-02-01T10:41:41;100063.78;;;8.80;67.02
21706;BME280;11014;53.076;18.208;2023-02-01T10:44:18;100047.81;;;8.97;66.89
21706;BME280;11014;53.076;18.208;2023-02-01T10:46:58;100050.72;;;9.07;65.80
21706;BME280;11014;53.076;18.208;2023-02-01T10:50:04;100060.97;;;9.10;65.56
21706;BME280;11014;53.076;18.208;2023-02-01T10:52:52;100064.72;;;9.09;65.71
21706;BME280;11014;53.076;18.208;2023-02-01T10:55:52;100057.97;;;8.95;65.46
21706;BME280;11014;53.076;18.208;2023-02-01T10:58:27;100055.16;;;9.13;65.39
21706;BME280;11014;53.076;18.208;2023-02-01T11:00:57;100058.56;;;8.74;65.42
21706;BME280;11014;53.076;18.208;2023-02-01T11:03:40;100065.28;;;8.88;64.83
21706;BME280;11014;53.076;18.208;2023-02-01T11:06:22;100058.09;;;8.77;65.09
21706;BME280;11014;53.076;18.208;2023-02-01T11:08:57;100052.97;;;8.99;65.35
21706;BME280;11014;53.076;18.208;2023-02-01T11:11:26;100062.72;;;8.47;66.77
21706;BME280;11014;53.076;18.208;2023-02-01T11:13:57;100054.09;;;8.56;67.96
21706;BME280;11014;53.076;18.208;2023-02-01T11:16:37;100049.00;;;8.55;67.71
21706;BME280;11014;53.076;18.208;2023-02-01T11:19:06;100057.47;;;8.52;67.35
21706;BME280;11014;53.076;18.208;2023-02-01T11:21:35;100045.94;;;8.51;66.94
21706;BME280;11014;53.076;18.208;2023-02-01T11:24:11;100050.13;;;8.59;67.48
21706;BME280;11014;53.076;18.208;2023-02-01T11:27:14;100044.22;;;8.80;67.48
21706;BME280;11014;53.076;18.208;2023-02-01T11:30:00;100028.25;;;8.62;67.48
21706;BME280;11014;53.076;18.208;2023-02-01T11:32:55;100031.84;;;8.56;67.11
21706;BME280;11014;53.076;18.208;2023-02-01T11:42:11;100040.97;;;8.78;66.14
21706;BME280;11014;53.076;18.208;2023-02-01T11:44:43;100030.13;;;8.73;66.11
21706;BME280;11014;53.076;18.208;2023-02-01T11:47:22;100043.84;;;9.11;65.75
21706;BME280;11014;53.076;18.208;2023-02-01T11:50:01;100047.47;;;9.28;65.17
21706;BME280;11014;53.076;18.208;2023-02-01T11:53:03;100041.28;;;9.28;65.34
21706;BME280;11014;53.076;18.208;2023-02-01T11:58:39;100035.16;;;9.56;64.57
21706;BME280;11014;53.076;18.208;2023-02-01T12:06:50;100035.78;;;9.34;65.34
21706;BME280;11014;53.076;18.208;2023-02-01T12:10:00;100025.91;;;9.23;65.50
21706;BME280;11014;53.076;18.208;2023-02-01T12:12:38;100013.41;;;9.97;65.00
21706;BME280;11014;53.076;18.208;2023-02-01T12:20:58;100017.97;;;11.56;58.56
21706;BME280;11014;53.076;18.208;2023-02-01T12:26:39;100018.94;;;11.07;59.09
21706;BME280;11014;53.076;18.208;2023-02-01T12:38:20;100032.94;;;9.52;61.82
21706;BME280;11014;53.076;18.208;2023-02-01T12:43:53;99998.75;;;9.60;62.74
21706;BME280;11014;53.076;18.208;2023-02-01T12:46:34;100003.84;;;9.44;62.69
21706;BME280;11014;53.076;18.208;2023-02-01T12:52:04;100011.59;;;9.06;63.03
21706;BME280;11014;53.076;18.208;2023-02-01T12:57:38;100006.34;;;9.11;62.95
21706;BME280;11014;53.076;18.208;2023-02-01T13:05:50;100005.13;;;9.42;62.63
21706;BME280;11014;53.076;18.208;2023-02-01T13:08:25;100026.00;;;9.28;62.54
21706;BME280;11014;53.076;18.208;2023-02-01T13:11:06;100014.38;;;9.11;63.45
21706;BME280;11014;53.076;18.208;2023-02-01T13:17:00;100025.78;;;9.18;63.52
21706;BME280;11014;53.076;18.208;2023-02-01T13:19:49;100018.34;;;9.20;63.96
21706;BME280;11014;53.076;18.208;2023-02-01T13:22:30;100045.59;;;8.94;63.81
21706;BME280;11014;53.076;18.208;2023-02-01T13:25:03;100037.81;;;9.04;63.33
21706;BME280;11014;53.076;18.208;2023-02-01T13:27:32;100024.38;;;9.16;63.32
21706;BME280;11014;53.076;18.208;2023-02-01T13:30:24;100021.41;;;8.89;63.08
21706;BME280;11014;53.076;18.208;2023-02-01T13:33:21;100025.13;;;8.76;62.97
21706;BME280;11014;53.076;18.208;2023-02-01T13:42:20;100057.72;;;9.08;63.30
21706;BME280;11014;53.076;18.208;2023-02-01T13:44:52;100040.59;;;9.09;62.78
21706;BME280;11014;53.076;18.208;2023-02-01T13:47:27;100043.66;;;9.01;62.87
21706;BME280;11014;53.076;18.208;2023-02-01T13:50:29;100039.44;;;8.93;63.18
21706;BME280;11014;53.076;18.208;2023-02-01T13:53:13;100054.81;;;8.86;63.10
21706;BME280;11014;53.076;18.208;2023-02-01T13:55:55;100035.97;;;8.81;63.57
21706;BME280;11014;53.076;18.208;2023-02-01T13:58:39;100040.38;;;8.76;63.41
21706;BME280;11014;53.076;18.208;2023-02-01T14:03:54;100060.19;;;9.10;63.00
21706;BME280;11014;53.076;18.208;2023-02-01T14:11:53;100043.53;;;8.96;64.11
21706;BME280;11014;53.076;18.208;2023-02-01T14:14:49;100065.31;;;8.76;64.17
21706;BME280;11014;53.076;18.208;2023-02-01T14:17:31;100046.66;;;8.81;64.37
21706;BME280;11014;53.076;18.208;2023-02-01T14:20:42;100050.28;;;8.87;64.87
21706;BME280;11014;53.076;18.208;2023-02-01T14:23:19;100044.81;;;8.70;64.91
21706;BME280;11014;53.076;18.208;2023-02-01T14:26:18;100031.41;;;8.59;65.13
21706;BME280;11014;53.076;18.208;2023-02-01T14:29:04;100039.78;;;8.51;65.08
21706;BME280;11014;53.076;18.208;2023-02-01T14:32:21;100039.78;;;8.62;64.47
21706;BME280;11014;53.076;18.208;2023-02-01T14:35:26;100043.28;;;8.63;64.66
21706;BME280;11014;53.076;18.208;2023-02-01T14:38:12;100032.34;;;8.76;64.17
21706;BME280;11014;53.076;18.208;2023-02-01T14:40:43;100032.47;;;8.81;64.17
21706;BME280;11014;53.076;18.208;2023-02-01T14:47:10;100031.44;;;8.82;63.96
21706;BME280;11014;53.076;18.208;2023-02-01T14:52:46;100047.69;;;8.69;64.17
21706;BME280;11014;53.076;18.208;2023-02-01T14:55:20;100035.59;;;8.66;64.26
21706;BME280;11014;53.076;18.208;2023-02-01T14:57:54;100041.09;;;8.71;64.01
21706;BME280;11014;53.076;18.208;2023-02-01T15:00:26;100037.94;;;8.63;64.26
21706;BME280;11014;53.076;18.208;2023-02-01T15:05:44;100037.22;;;8.67;63.68
21706;BME280;11014;53.076;18.208;2023-02-01T15:08:25;100036.88;;;8.64;63.72
21706;BME280;11014;53.076;18.208;2023-02-01T15:10:58;100025.34;;;8.52;63.72
21706;BME280;11014;53.076;18.208;2023-02-01T15:13:28;100030.44;;;8.42;63.63
21706;BME280;11014;53.076;18.208;2023-02-01T15:16:13;100021.63;;;8.53;63.96
21706;BME280;11014;53.076;18.208;2023-02-01T15:18:42;100031.25;;;8.42;63.68